• Join FlightAware (Why Join?)
  • Login
  • US Flag 
11:30AM EDT


 

Airport Tracker/Info


-or-


 

Live Flight TrackerFlight Track Log ✈ DAL268 ✈ 24-Jun-2013 ✈ KJFK - LLBG / TLV

Flight Track Log - Related Links

Times and Time Zones

All times are in EDT time to prevent confusion due to time zone crossing. See the DAL268 flight status page for this flight to view local times or setup timezone preferences in your user account.

Time Position Orientation Groundspeed Altitude Reporting Facility
EDT Latitude Longitude Course Direction KTS MPH feet Rate Location/Type
12:08AM 40.6360 -73.7760 North 2 2  Level FlightAware
12:09AM 40.6360 -73.7750 90° East 2 2  Level FlightAware
12:10AM 40.6350 -73.7750 180° South 2 2  Level FlightAware
12:13AM 40.5017 -73.3866 123° Southeast  Level FlightAware Approximate
12:13AM 40.6350 -73.7740 123° Southeast 2 2  Level FlightAware
12:16AM 40.5000 -73.3811 90° East  Level FlightAware Approximate
12:16AM 40.6360 -73.7740 90° East 2 2  Level FlightAware
12:17AM 40.6350 -73.7740 180° South  Level FlightAware
12:19AM 40.5426 -73.4945 114° Southeast  Level FlightAware Approximate
12:20AM 40.4864 -73.3260 114° Southeast  Level FlightAware Approximate
12:21AM 40.4377 -73.1546 119° Southeast  Level FlightAware Approximate
12:22AM 40.3833 -72.9865 90° East  Level FlightAware Approximate
12:23AM 40.4189 -72.8077 72° East  Level FlightAware Approximate
12:23AM 40.6330 -73.7740 180° South 15 17  Level FlightAware
12:25AM 40.6310 -73.7740 180° South 14 16 60 Level FlightAware
12:26AM 40.6310 -73.7750 270° West 19 22 60 Level FlightAware
12:26AM 40.6300 -73.7740 143° Southeast 18 21 120 Level FlightAware
12:27AM 40.6290 -73.7720 123° Southeast 24 28 120 Level FlightAware
12:27AM 40.6290 -73.7710 90° East 26 30 120 Level FlightAware
12:28AM 40.6270 -73.7680 131° Southeast 32 37 180 Level FlightAware
12:29AM 40.6260 -73.7680 180° South 20 23 240 Level FlightAware
12:29AM 40.6250 -73.7690 217° Southwest 17 20 300 Level FlightAware
12:30AM 40.6290 -73.7770 303° West 100 115 420 Level FlightAware
12:31AM 40.6490 -73.8240 299° West 182 209 700 840 Climbing FlightAware
12:31AM 40.6490 -73.8290 270° West 184 212 800 1,500 Climbing FlightAware
12:31AM 40.6400 -73.8500 241° Southwest 193 222 1,400 1,620 Climbing FlightAware
12:32AM 40.6290 -73.8590 212° Southwest 195 224 1,800 1,920 Climbing FlightAware
12:32AM 40.6100 -73.8680 200° South 200 230 2,600 1,680 Climbing FlightAware
12:32AM 40.5850 -73.8500 151° Southeast 222 255 3,300 1,380 Climbing FlightAware
12:33AM 40.5800 -73.8290 107° East 229 264 3,700 1,200 Climbing FlightAware
12:33AM 40.5850 -73.7880 81° East 254 292 4,200 1,020 Climbing FlightAware
12:34AM 40.5930 -73.7430 77° East 279 321 4,700 1,200 Climbing FlightAware
12:34AM 40.6010 -73.6910 79° East 302 348 5,400 1,560 Climbing FlightAware
12:34AM 40.6020 -73.6686 87° East 311 358 5,800 2,100 Climbing FlightAware ADS-B
12:34AM 40.6013 -73.6605 96° East 312 359 6,000 2,160 Climbing FlightAware ADS-B
12:35AM 40.5994 -73.6487 102° East 315 362 6,200 2,460 Climbing FlightAware ADS-B
12:35AM 40.5966 -73.6380 109° East 317 365 6,500 2,700 Climbing FlightAware ADS-B
12:35AM 40.5869 -73.6098 114° Southeast 319 367 7,200 2,880 Climbing FlightAware ADS-B
12:35AM 40.5779 -73.5829 114° Southeast 318 366 8,000 2,700 Climbing FlightAware ADS-B
12:35AM 40.5683 -73.5549 114° Southeast 324 373 8,600 2,280 Climbing FlightAware ADS-B
12:36AM 40.5586 -73.5261 114° Southeast 328 377 9,200 2,400 Climbing FlightAware ADS-B
12:36AM 40.5499 -73.4985 113° Southeast 331 381 9,800 2,340 Climbing FlightAware ADS-B
12:36AM 40.5318 -73.4399 112° Southeast 340 391 11,000 1,620 Climbing FlightAware ADS-B
12:37AM 40.5148 -73.3869 113° Southeast 371 427 11,400 1,080 Climbing FlightAware ADS-B
12:37AM 40.4930 -73.3193 113° Southeast 396 456 12,100 1,320 Climbing FlightAware ADS-B
12:38AM 40.4714 -73.2500 112° Southeast 417 480 12,800 1,620 Climbing FlightAware ADS-B
12:38AM 40.4485 -73.1782 113° Southeast 430 495 13,800 2,040 Climbing FlightAware ADS-B
12:39AM 40.4100 -73.0595 113° Southeast 434 499 15,500 2,100 Climbing FlightAware ADS-B
12:39AM 40.4023 -73.0298 109° East 447 514 15,900 1,980 Climbing FlightAware ADS-B
12:40AM 40.3996 -73.0061 99° East 450 518 16,200 1,980 Climbing FlightAware ADS-B
12:40AM 40.3997 -72.9803 90° East 452 520 16,500 1,800 Climbing FlightAware ADS-B
12:40AM 40.4032 -72.9512 81° East 456 525 16,800 1,620 Climbing FlightAware ADS-B
12:40AM 40.4110 -72.9227 70° East 458 527 17,100 1,680 Climbing FlightAware ADS-B
12:40AM 40.4218 -72.8987 59° Northeast 459 528 17,400 1,980 Climbing FlightAware ADS-B
12:41AM 40.4620 -72.8255 54° Northeast 464 534 18,500 1,980 Climbing FlightAware ADS-B
12:41AM 40.5021 -72.7549 53° Northeast 465 535 19,500 1,800 Climbing FlightAware ADS-B
12:42AM 40.5425 -72.6835 53° Northeast 476 548 20,400 1,740 Climbing FlightAware ADS-B
12:42AM 40.5821 -72.6121 54° Northeast 480 552 21,300 1,560 Climbing FlightAware ADS-B
12:43AM 40.6221 -72.5396 54° Northeast 486 559 22,000 1,380 Climbing FlightAware ADS-B
12:43AM 40.6620 -72.4667 54° Northeast 493 567 22,700 1,320 Climbing FlightAware ADS-B
12:44AM 40.7210 -72.3585 54° Northeast 501 577 23,700 1,380 Climbing FlightAware ADS-B
12:45AM 40.7709 -72.2665 54° Northeast 506 582 24,600 1,200 Climbing FlightAware ADS-B
12:45AM 40.8383 -72.1423 54° Northeast 517 595 25,500 1,200 Climbing FlightAware ADS-B
12:46AM 40.8826 -72.0604 54° Northeast 523 602 26,200 1,200 Climbing FlightAware ADS-B
12:47AM 40.9257 -71.9799 55° Northeast 526 605 26,800 1,140 Climbing FlightAware ADS-B
12:48AM 41.0130 -71.8170 55° Northeast 533 613 28,000 660 Climbing FlightAware
12:48AM 41.0610 -71.7300 54° Northeast 533 613 28,000  Level FlightAware
12:49AM 41.1250 -71.6130 54° Northeast 533 613 28,000 1,740 Level FlightAware
12:50AM 41.2016 -71.4669 55° Northeast 533 613 30,700 2,340 Climbing FlightAware ADS-B
12:51AM 41.2781 -71.3266 54° Northeast 536 617 31,600 960 Climbing FlightAware ADS-B
12:52AM 41.3540 -71.1860 54° Northeast 534 615 32,500 840 Climbing FlightAware
12:52AM 41.4180 -71.0660 55° Northeast 531 611 33,000 300 Climbing FlightAware
12:53AM 41.4730 -70.9610 55° Northeast 524 603 33,000  Level FlightAware
12:54AM 41.5360 -70.8400 55° Northeast 522 601 33,000  Level FlightAware
12:54AM 41.5900 -70.7370 55° Northeast 522 601 33,000  Level FlightAware
12:55AM 41.6650 -70.5940 55° Northeast 522 601 33,000  Level FlightAware
12:56AM 41.7460 -70.4340 56° Northeast 525 604 33,000  Level FlightAware
12:57AM 41.8080 -70.3120 56° Northeast 529 609 33,000  Level FlightAware
12:58AM 41.8630 -70.2020 56° Northeast 532 612 33,000  Level FlightAware
12:58AM 41.9170 -70.0910 57° Northeast 526 605 33,000  Level FlightAware
12:59AM 41.9970 -69.9300 56° Northeast 519 597 33,000  Level FlightAware
01:00AM 42.0700 -69.7830 56° Northeast 512 589 33,000  Level FlightAware
01:01AM 42.1360 -69.6490 56° Northeast 508 585 33,000  Level FlightAware
01:02AM 42.1760 -69.5690 56° Northeast 505 581 33,000  Level FlightAware
01:02AM 42.2270 -69.4620 57° Northeast 504 580 33,000  Level FlightAware
01:03AM 42.2790 -69.3570 56° Northeast 504 580 33,000  Level FlightAware
01:04AM 42.3310 -69.2490 57° Northeast 509 586 33,000  Level FlightAware
01:04AM 42.3890 -69.1300 57° Northeast 508 585 33,000  Level FlightAware
01:05AM 42.4400 -69.0240 57° Northeast 509 586 33,000  Level FlightAware
01:06AM 42.5120 -68.8750 57° Northeast 509 586 33,000  Level FlightAware
01:07AM 42.5490 -68.7970 57° Northeast 509 586 33,000  Level FlightAware
01:07AM 42.6010 -68.6880 57° Northeast 509 586 33,000  Level FlightAware
01:08AM 42.6380 -68.6100 57° Northeast 509 586 33,000  Level FlightAware
01:09AM 42.6880 -68.5050 57° Northeast 509 586 33,000  Level FlightAware
01:10AM 42.7550 -68.3660 57° Northeast 509 586 33,000  Level FlightAware
01:11AM 42.8900 -68.0740 58° Northeast 517 595 33,000  Level FlightAware
01:12AM 42.9400 -67.9630 58° Northeast 517 595 33,000  Level FlightAware
01:12AM 42.9920 -67.8500 58° Northeast 517 595 33,000  Level FlightAware
01:13AM 43.0880 -67.6470 57° Northeast 522 601 33,000  Level FlightAware
01:14AM 43.1330 -67.5530 57° Northeast 522 601 33,000  Level FlightAware
01:15AM 43.1730 -67.4680 57° Northeast 522 601 33,000  Level FlightAware
01:15AM 43.2270 -67.3540 57° Northeast 522 601 33,000  Level FlightAware
01:16AM 43.2680 -67.2670 57° Northeast 522 601 33,000  Level FlightAware
01:17AM 43.3220 -67.1530 57° Northeast 522 601 33,000  Level FlightAware
01:18AM 43.3880 -67.0130 57° Northeast 522 601 33,000  Level FlightAware
01:18AM 43.4280 -66.9280 57° Northeast 522 601 33,000  Level FlightAware
01:19AM 43.4820 -66.8140 57° Northeast 522 601 33,000  Level FlightAware
01:20AM 43.5220 -66.7290 57° Northeast 522 601 33,000  Level FlightAware
01:21AM 43.5750 -66.6150 57° Northeast 522 601 33,000  Level FlightAware
01:21AM 43.6150 -66.5320 56° Northeast 522 601 33,000  Level FlightAware
01:22AM 43.6670 -66.4200 57° Northeast 522 601 33,000  Level FlightAware
01:23AM 43.7080 -66.3320 57° Northeast 522 601 33,000  Level FlightAware
01:25AM 43.9820 -65.6150 62° Northeast 531 611 33,000  Level FlightAware
01:26AM 44.0270 -65.5110 59° Northeast 531 611 33,000  Level FlightAware
01:26AM 44.0790 -65.3870 60° Northeast 527 606 33,000  Level FlightAware
01:27AM 44.1320 -65.2630 59° Northeast 524 603 33,000  Level FlightAware
01:28AM 44.1820 -65.1440 60° Northeast 525 604 33,000  Level FlightAware
01:29AM 44.2400 -65.0060 60° Northeast 526 605 33,000  Level FlightAware
01:29AM 44.2830 -64.9020 60° Northeast 527 606 33,000  Level FlightAware
01:30AM 44.3410 -64.7630 60° Northeast 529 609 33,000  Level FlightAware
01:31AM 44.3910 -64.6430 60° Northeast 531 611 33,000  Level FlightAware
01:31AM 44.4470 -64.5080 60° Northeast 534 615 33,000  Level FlightAware
01:32AM 44.4960 -64.3880 60° Northeast 536 617 33,000  Level FlightAware
01:33AM 44.5430 -64.2720 60° Northeast 538 619 33,000  Level FlightAware
01:33AM 44.6010 -64.1290 60° Northeast 538 619 33,000  Level FlightAware
01:34AM 44.6500 -64.0060 61° Northeast 537 618 33,000  Level FlightAware
01:35AM 44.7040 -63.8730 60° Northeast 538 619 33,000  Level FlightAware
01:35AM 44.7480 -63.7640 60° Northeast 538 619 33,000  Level FlightAware
01:36AM 44.8030 -63.6270 60° Northeast 539 620 33,000  Level FlightAware
01:37AM 44.8540 -63.4960 61° Northeast 537 618 33,000  Level FlightAware
01:38AM 44.8970 -63.3900 60° Northeast 537 618 33,000  Level FlightAware
01:38AM 44.9470 -63.2620 61° Northeast 537 618 33,000  Level FlightAware
01:39AM 44.9860 -63.1630 61° Northeast 537 618 33,000  Level FlightAware
01:40AM 45.0350 -63.0370 61° Northeast 537 618 33,000  Level FlightAware
01:40AM 45.0700 -62.9480 61° Northeast 537 618 33,000  Level FlightAware
01:41AM 45.1190 -62.8230 61° Northeast 537 618 33,000  Level FlightAware
01:42AM 45.1560 -62.7290 61° Northeast 537 618 33,000  Level FlightAware
01:43AM 45.2050 -62.6030 61° Northeast 537 618 33,000  Level FlightAware
01:43AM 45.2430 -62.5060 61° Northeast 537 618 33,000  Level FlightAware
01:44AM 45.2930 -62.3770 61° Northeast 537 618 33,000  Level FlightAware
01:45AM 45.3310 -62.2800 61° Northeast 537 618 33,000  Level FlightAware
01:45AM 45.3670 -62.1850 62° Northeast 537 618 33,000  Level FlightAware
01:46AM 45.4180 -62.0560 61° Northeast 537 618 33,000  Level FlightAware
01:47AM 45.4540 -61.9620 61° Northeast 537 618 33,000  Level FlightAware
01:47AM 45.5050 -61.8330 61° Northeast 537 618 33,000  Level FlightAware
01:48AM 45.6600 -61.3970 63° Northeast 536 617 33,000  Level FlightAware
01:49AM 45.6970 -61.2960 62° Northeast 536 617 33,000  Level FlightAware
01:50AM 45.7590 -61.1270 62° Northeast 539 620 33,000  Level FlightAware
01:50AM 45.8120 -60.9830 62° Northeast 540 621 33,000  Level FlightAware
01:51AM 45.8580 -60.8550 63° Northeast 542 624 33,000  Level FlightAware
01:52AM 45.9100 -60.7130 62° Northeast 541 623 33,000  Level FlightAware
01:53AM 45.9560 -60.5850 63° Northeast 542 624 33,000  Level FlightAware
01:53AM 46.0010 -60.4580 63° Northeast 544 626 33,000  Level FlightAware
01:54AM 46.0500 -60.3200 63° Northeast 544 626 33,000  Level FlightAware
01:55AM 46.1000 -60.1800 63° Northeast 545 627 33,000  Level FlightAware
01:55AM 46.1480 -60.0430 63° Northeast 546 628 33,000  Level FlightAware
01:56AM 46.1920 -59.9130 64° Northeast 546 628 33,000  Level FlightAware
01:57AM 46.2390 -59.7740 64° Northeast 547 629 33,000  Level FlightAware
01:57AM 46.2880 -59.6300 64° Northeast 548 631 33,000  Level FlightAware
01:58AM 46.3370 -59.4870 64° Northeast 549 632 33,000  Level FlightAware
01:59AM 46.3830 -59.3520 64° Northeast 550 633 33,000  Level FlightAware
02:00AM 46.4270 -59.2220 64° Northeast 551 634 33,000  Level FlightAware
02:00AM 46.4780 -59.0720 64° Northeast 552 635 33,000  Level FlightAware
02:01AM 46.5230 -58.9400 64° Northeast 552 635 33,000  Level FlightAware
02:02AM 46.5700 -58.7980 64° Northeast 552 635 33,000  Level FlightAware
02:02AM 46.6100 -58.6790 64° Northeast 552 635 33,000  Level FlightAware
02:03AM 46.6540 -58.5480 64° Northeast 552 635 33,000  Level FlightAware
02:04AM 46.6880 -58.4460 64° Northeast 552 635 33,000  Level FlightAware
02:04AM 46.7360 -58.3030 64° Northeast 552 635 33,000  Level FlightAware
02:05AM 46.7700 -58.2010 64° Northeast 552 635 33,000  Level FlightAware
02:06AM 46.8290 -58.0240 64° Northeast 552 635 33,000  Level FlightAware
02:07AM 46.8640 -57.9180 64° Northeast 552 635 33,000  Level FlightAware
02:08AM 46.9590 -57.6120 65° Northeast 552 635 33,000  Level FlightAware
02:08AM 47.0000 -57.4840 65° Northeast 551 634 33,000  Level FlightAware
02:09AM 47.0440 -57.3430 65° Northeast 550 633 33,000  Level FlightAware
02:10AM 47.1010 -57.1580 66° East 549 632 33,000  Level FlightAware
02:11AM 47.1640 -56.9550 65° Northeast 547 629 33,000  Level FlightAware
02:11AM 47.2100 -56.8040 66° East 547 629 33,000  Level FlightAware
02:12AM 47.2510 -56.6670 66° East 547 629 33,000  Level FlightAware
02:13AM 47.2910 -56.5370 66° East 549 632 33,000  Level FlightAware
02:14AM 47.3380 -56.3780 66° East 549 632 33,000  Level FlightAware
02:14AM 47.3780 -56.2460 66° East 549 632 33,000  Level FlightAware
02:15AM 47.4360 -56.0500 66° East 551 634 33,000  Level FlightAware
02:16AM 47.4740 -55.9220 66° East 551 634 33,000  Level FlightAware
02:16AM 47.5160 -55.7750 67° East 552 635 33,000  Level FlightAware
02:17AM 47.5630 -55.6150 66° East 553 636 33,000  Level FlightAware
02:18AM 47.6020 -55.4780 67° East 553 636 33,000  Level FlightAware
02:19AM 47.6400 -55.3410 68° East 554 638 33,000  Level FlightAware
02:19AM 47.6870 -55.1770 67° East 553 636 33,000  Level FlightAware
02:20AM 47.7260 -55.0370 67° East 552 635 33,000  Level FlightAware
02:21AM 47.7700 -54.8800 67° East 553 636 33,000  Level FlightAware
02:21AM 47.8090 -54.7380 68° East 553 636 33,000  Level FlightAware
02:22AM 47.8470 -54.6000 68° East 553 636 33,000  Level FlightAware
02:23AM 47.8920 -54.4420 67° East 554 638 33,000  Level FlightAware
02:24AM 47.9360 -54.2820 68° East 553 636 33,000  Level FlightAware
02:24AM 47.9750 -54.1400 68° East 554 638 33,000  Level FlightAware
02:25AM 48.0140 -53.9990 67° East 554 638 33,000  Level FlightAware
02:26AM 48.0520 -53.8560 68° East 555 639 33,000  Level FlightAware
02:26AM 48.0940 -53.6970 68° East 555 639 33,000  Level FlightAware
02:27AM 48.1360 -53.5400 68° East 555 639 33,000  Level FlightAware
02:28AM 48.1750 -53.3920 68° East 556 640 33,000  Level FlightAware
02:28AM 48.2150 -53.2360 69° East 556 640 33,000  Level FlightAware
02:29AM 48.2550 -53.0870 68° East 554 638 33,000  Level FlightAware
02:30AM 48.2770 -53.0020 69° East 555 639 33,000  Level FlightAware
02:30AM 48.3200 -52.8390 68° East 556 640 33,000  Level FlightAware
02:31AM 48.3580 -52.6910 69° East 557 641 33,000  Level FlightAware
02:32AM 48.3940 -52.5470 69° East 557 641 33,000  Level FlightAware
02:33AM 48.4470 -52.3390 69° East 557 641 33,000  Level FlightAware
02:34AM 48.4970 -52.1400 69° East 557 641 33,000  Level FlightAware
02:34AM 48.5370 -51.9760 70° East 559 643 33,000  Level FlightAware
02:35AM 48.5760 -51.8180 69° East 560 644 33,000  Level FlightAware
02:36AM 48.6130 -51.6640 70° East 559 643 33,000  Level FlightAware
02:36AM 48.6440 -51.5360 70° East 557 641 33,000  Level FlightAware
02:37AM 48.6900 -51.3440 70° East 557 641 33,000  Level FlightAware
02:38AM 48.7380 -51.1440 70° East 554 638 33,000  Level FlightAware
02:39AM 48.7710 -51.0020 71° East 555 639 33,000  Level FlightAware
02:39AM 48.8010 -50.8730 71° East 555 639 33,000  Level FlightAware
02:40AM 48.8450 -50.6840 70° East 556 640 33,000  Level FlightAware
02:41AM 48.8740 -50.5650 70° East 556 640 33,000  Level FlightAware
02:42AM 48.9100 -50.4150 70° East 556 640 33,000  Level FlightAware
02:42AM 48.9350 -50.3090 70° East 556 640 33,000  Level FlightAware
02:43AM 48.9720 -50.1550 70° East 556 640 33,000  Level FlightAware
02:44AM 48.9990 -50.0430 70° East 556 640 33,000  Level FlightAware
02:44AM 49.0350 -49.8890 70° East 556 640 33,000  Level FlightAware
02:45AM 49.0620 -49.7760 70° East 556 640 33,000  Level FlightAware
02:46AM 49.0980 -49.6260 70° East 556 640 33,000  Level FlightAware
02:46AM 49.1260 -49.5100 70° East 556 640 33,000  Level FlightAware
02:47AM 49.0000 -50.0000 77° East 562 647 33,000  Level ETMS Enhanced Traffic Management System
02:47AM 49.1167 -49.0667 77° East 570 656 33,000  Level Gander Center
02:47AM 49.1600 -49.3650 70° East 556 640 33,000  Level FlightAware
02:48AM 49.1880 -49.2490 70° East 556 640 33,000  Level FlightAware
02:48AM 49.1333 -48.8333 84° East 570 656 33,000  Level Gander Center
02:48AM 49.2150 -49.1320 71° East 556 640 33,000  Level FlightAware
02:49AM 49.1833 -48.5833 73° East 570 656 33,000  Level Gander Center
02:49AM 49.2500 -48.9880 70° East 556 640 33,000  Level FlightAware
02:50AM 49.2780 -48.8680 70° East 556 640 33,000  Level FlightAware
02:50AM 49.2000 -48.3667 83° East 570 656 33,000  Level Gander Center
02:51AM 49.2333 -48.1000 79° East 570 656 33,000  Level Gander Center
02:52AM 49.2667 -47.8833 77° East 560 644 33,000  Level Gander Center
02:53AM 49.2833 -47.6500 84° East 560 644 33,000  Level Gander Center
02:54AM 49.3167 -47.4167 78° East 560 644 33,000  Level Gander Center
02:55AM 49.3500 -47.1833 78° East 570 656 33,000  Level Gander Center
02:56AM 49.3833 -46.9500 78° East 560 644 33,000  Level Gander Center
02:58AM 49.4246 -46.6240 79° East  Level FlightAware Approximate
03:05AM 49.5928 -45.0924 80° East  Level FlightAware Approximate
03:06AM 49.6147 -44.8727 81° East  Level FlightAware Approximate
03:07AM 49.6361 -44.6528 81° East  Level FlightAware Approximate
03:08AM 49.6572 -44.4327 82° East  Level FlightAware Approximate
03:09AM 49.6778 -44.2123 82° East  Level FlightAware Approximate
03:10AM 49.6980 -43.9918 82° East  Level FlightAware Approximate
03:11AM 49.7178 -43.7712 82° East  Level FlightAware Approximate
03:12AM 49.7378 -43.5504 82° East  Level FlightAware Approximate
03:13AM 49.7573 -43.3296 82° East  Level FlightAware Approximate
03:14AM 49.7765 -43.1085 82° East  Level FlightAware Approximate
03:15AM 49.7952 -42.8872 82° East  Level FlightAware Approximate
03:16AM 49.8135 -42.6658 83° East  Level FlightAware Approximate
03:17AM 49.8314 -42.4442 83° East  Level FlightAware Approximate
03:18AM 49.8489 -42.2225 83° East  Level FlightAware Approximate
03:19AM 49.8659 -42.0005 83° East  Level FlightAware Approximate
03:20AM 49.8825 -41.7785 83° East  Level FlightAware Approximate
03:21AM 49.8987 -41.5563 83° East  Level FlightAware Approximate
03:22AM 49.9145 -41.3339 84° East  Level FlightAware Approximate
03:23AM 49.9299 -41.1114 84° East  Level FlightAware Approximate
03:24AM 49.9448 -40.8888 84° East  Level FlightAware Approximate
03:25AM 49.9593 -40.6660 84° East  Level FlightAware Approximate
03:26AM 49.9733 -40.4431 84° East  Level FlightAware Approximate
03:27AM 49.9870 -40.2201 84° East  Level FlightAware Approximate
03:28AM 50.0004 -39.9969 77° East  Level FlightAware Approximate
03:29AM 50.0317 -39.7780 77° East  Level FlightAware Approximate
03:30AM 50.0625 -39.5589 78° East  Level FlightAware Approximate
03:30AM 50.0000 -40.0000 77° East 551 634 33,000  Level ETMS Enhanced Traffic Management System
03:31AM 50.0929 -39.3394 78° East  Level FlightAware Approximate
03:32AM 50.1230 -39.1197 78° East  Level FlightAware Approximate
03:33AM 50.1525 -38.8997 78° East  Level FlightAware Approximate
03:34AM 50.1817 -38.6795 78° East  Level FlightAware Approximate
03:35AM 50.2105 -38.4589 78° East  Level FlightAware Approximate
03:36AM 50.3153 -37.6601 79° East 551 634 33,000  Level FlightAware Transoceanic
03:37AM 50.3442 -37.4245 79° East 551 634 33,000  Level FlightAware Transoceanic
03:38AM 50.3727 -37.1885 79° East 551 634 33,000  Level FlightAware Transoceanic
03:39AM 50.4007 -36.9523 80° East 551 634 33,000  Level FlightAware Transoceanic
03:40AM 50.4282 -36.7159 80° East 551 634 33,000  Level FlightAware Transoceanic
03:41AM 50.4552 -36.4791 80° East 551 634 33,000  Level FlightAware Transoceanic
03:42AM 50.4817 -36.2421 80° East 551 634 33,000  Level FlightAware Transoceanic
03:43AM 50.5078 -36.0048 80° East 551 634 33,000  Level FlightAware Transoceanic
03:44AM 50.5334 -35.7672 80° East 551 634 33,000  Level FlightAware Transoceanic
03:45AM 50.5584 -35.5294 81° East 551 634 33,000  Level FlightAware Transoceanic
03:46AM 50.5830 -35.2914 81° East 551 634 33,000  Level FlightAware Transoceanic
03:47AM 50.6072 -35.0531 81° East 551 634 33,000  Level FlightAware Transoceanic
03:48AM 50.6308 -34.8145 81° East 551 634 33,000  Level FlightAware Transoceanic
03:49AM 50.6539 -34.5757 81° East 551 634 33,000  Level FlightAware Transoceanic
03:50AM 50.6766 -34.3367 82° East 551 634 33,000  Level FlightAware Transoceanic
03:51AM 50.6988 -34.0975 82° East 551 634 33,000  Level FlightAware Transoceanic
03:52AM 50.7204 -33.8580 82° East 551 634 33,000  Level FlightAware Transoceanic
03:53AM 50.7416 -33.6183 82° East 551 634 33,000  Level FlightAware Transoceanic
03:54AM 50.7623 -33.3784 82° East 551 634 33,000  Level FlightAware Transoceanic
03:55AM 50.7825 -33.1383 83° East 551 634 33,000  Level FlightAware Transoceanic
03:56AM 50.8022 -32.8980 83° East 551 634 33,000  Level FlightAware Transoceanic
03:57AM 50.8214 -32.6575 83° East 551 634 33,000  Level FlightAware Transoceanic
03:58AM 50.8402 -32.4168 83° East 551 634 33,000  Level FlightAware Transoceanic
03:59AM 50.8584 -32.1759 83° East 551 634 33,000  Level FlightAware Transoceanic
04:00AM 50.8761 -31.9348 83° East 551 634 33,000  Level FlightAware Transoceanic
04:01AM 50.8933 -31.6935 84° East 551 634 33,000  Level FlightAware Transoceanic
04:02AM 50.9101 -31.4521 84° East 551 634 33,000  Level FlightAware Transoceanic
04:03AM 50.9263 -31.2105 84° East 551 634 33,000  Level FlightAware Transoceanic
04:04AM 50.9421 -30.9687 84° East 551 634 33,000  Level FlightAware Transoceanic
04:05AM 50.9573 -30.7267 84° East 551 634 33,000  Level FlightAware Transoceanic
04:06AM 50.9720 -30.4846 85° East 551 634 33,000  Level FlightAware Transoceanic
04:07AM 50.9863 -30.2424 85° East 551 634 33,000  Level FlightAware Transoceanic
04:08AM 50.9992 -30.0144 85° East  Level FlightAware Approximate
04:09AM 51.0116 -29.7863 85° East  Level FlightAware Approximate
04:10AM 51.0084 -29.8004 86° East  Level FlightAware Approximate
04:11AM 51.0175 -29.5719 86° East  Level FlightAware Approximate
04:11AM 51.0000 -30.0000 86° East 552 635 33,000  Level ETMS Enhanced Traffic Management System
04:12AM 51.0262 -29.3433 86° East  Level FlightAware Approximate
04:13AM 51.0345 -29.1146 87° East  Level FlightAware Approximate
04:14AM 51.0423 -28.8858 87° East  Level FlightAware Approximate
04:15AM 51.0497 -28.6569 87° East  Level FlightAware Approximate
04:16AM 51.0566 -28.4280 87° East  Level FlightAware Approximate
04:17AM 51.0732 -27.8078 88° East 552 635 33,000  Level FlightAware Transoceanic
04:18AM 51.0788 -27.5639 88° East 552 635 33,000  Level FlightAware Transoceanic
04:19AM 51.0838 -27.3199 88° East 552 635 33,000  Level FlightAware Transoceanic
04:20AM 51.0884 -27.0758 88° East 552 635 33,000  Level FlightAware Transoceanic
04:21AM 51.0925 -26.8317 89° East 552 635 33,000  Level FlightAware Transoceanic
04:22AM 51.0960 -26.5876 89° East 552 635 33,000  Level FlightAware Transoceanic
04:23AM 51.0991 -26.3434 89° East 552 635 33,000  Level FlightAware Transoceanic
04:24AM 51.1016 -26.0992 89° East 552 635 33,000  Level FlightAware Transoceanic
04:25AM 51.1037 -25.8549 89° East 552 635 33,000  Level FlightAware Transoceanic
04:26AM 51.1052 -25.6107 90° East 552 635 33,000  Level FlightAware Transoceanic
04:27AM 51.1062 -25.3664 90° East 552 635 33,000  Level FlightAware Transoceanic
04:28AM 51.1067 -25.1221 90° East 552 635 33,000  Level FlightAware Transoceanic
04:29AM 51.1067 -24.8779 90° East 552 635 33,000  Level FlightAware Transoceanic
04:30AM 51.1062 -24.6336 90° East 552 635 33,000  Level FlightAware Transoceanic
04:31AM 51.1052 -24.3893 90° East 552 635 33,000  Level FlightAware Transoceanic
04:32AM 51.1037 -24.1451 91° East 552 635 33,000  Level FlightAware Transoceanic
04:33AM 51.1016 -23.9008 91° East 552 635 33,000  Level FlightAware Transoceanic
04:34AM 51.0991 -23.6566 91° East 552 635 33,000  Level FlightAware Transoceanic
04:35AM 51.0960 -23.4124 91° East 552 635 33,000  Level FlightAware Transoceanic
04:36AM 51.0925 -23.1683 91° East 552 635 33,000  Level FlightAware Transoceanic
04:37AM 51.0884 -22.9242 92° East 552 635 33,000  Level FlightAware Transoceanic
04:38AM 51.0838 -22.6801 92° East 552 635 33,000  Level FlightAware Transoceanic
04:39AM 51.0788 -22.4361 92° East 552 635 33,000  Level FlightAware Transoceanic
04:40AM 51.0732 -22.1922 92° East 552 635 33,000  Level FlightAware Transoceanic
04:41AM 51.0671 -21.9483 92° East 552 635 33,000  Level FlightAware Transoceanic
04:42AM 51.0604 -21.7045 93° East 552 635 33,000  Level FlightAware Transoceanic
04:43AM 51.0533 -21.4607 93° East 552 635 33,000  Level FlightAware Transoceanic
04:44AM 51.0457 -21.2170 93° East 552 635 33,000  Level FlightAware Transoceanic
04:45AM 51.0376 -20.9734 93° East 552 635 33,000  Level FlightAware Transoceanic
04:46AM 51.0289 -20.7299 93° East 552 635 33,000  Level FlightAware Transoceanic
04:47AM 51.0198 -20.4865 94° East 552 635 33,000  Level FlightAware Transoceanic
04:48AM 51.0102 -20.2432 94° East 552 635 33,000 60 Level FlightAware Transoceanic
04:49AM 51.0006 -20.0147 94° East  Level FlightAware Approximate
04:50AM 50.9907 -19.7864 94° East  Level FlightAware Approximate
04:51AM 50.9783 -19.8037 100° East  Level FlightAware Approximate
04:52AM 50.9530 -19.5785 100° East  Level FlightAware Approximate
04:53AM 50.9273 -19.3539 100° East  Level FlightAware Approximate
04:54AM 50.9012 -19.1296 100° East  Level FlightAware Approximate
04:55AM 50.8746 -18.9055 101° East  Level FlightAware Approximate
04:56AM 50.8476 -18.6817 101° East  Level FlightAware Approximate
04:57AM 50.8202 -18.4581 101° East  Level FlightAware Approximate
04:58AM 50.7923 -18.2349 101° East  Level FlightAware Approximate
04:59AM 50.7641 -18.0119 101° East  Level FlightAware Approximate
05:00AM 50.7354 -17.7891 101° East  Level FlightAware Approximate
05:01AM 50.7062 -17.5666 102° East  Level FlightAware Approximate
05:02AM 50.6767 -17.3444 102° East  Level FlightAware Approximate
05:03AM 50.6467 -17.1225 102° East  Level FlightAware Approximate
05:04AM 50.6163 -16.9009 102° East  Level FlightAware Approximate
05:05AM 50.5855 -16.6796 102° East  Level FlightAware Approximate
05:06AM 50.5543 -16.4585 102° East  Level FlightAware Approximate
05:07AM 50.5227 -16.2378 103° East  Level FlightAware Approximate
05:08AM 50.4906 -16.0173 103° East  Level FlightAware Approximate
05:09AM 50.4581 -15.7972 103° East  Level FlightAware Approximate
05:10AM 50.4253 -15.5773 103° East  Level FlightAware Approximate
05:11AM 50.3919 -15.3578 103° East  Level FlightAware Approximate
05:12AM 50.3582 -15.1386 103° East  Level FlightAware Approximate
05:13AM 50.3241 -14.9197 104° East  Level FlightAware Approximate
05:14AM 50.2896 -14.7010 104° East  Level FlightAware Approximate
05:15AM 50.2546 -14.4828 104° East  Level FlightAware Approximate
05:16AM 50.2192 -14.2648 104° East  Level FlightAware Approximate
05:17AM 50.1835 -14.0472 104° East  Level FlightAware Approximate
05:18AM 50.1473 -13.8299 104° East  Level FlightAware Approximate
05:19AM 50.1107 -13.6129 105° East  Level FlightAware Approximate
05:20AM 50.0738 -13.3962 105° East  Level FlightAware Approximate
05:21AM 50.0364 -13.1799 105° East  Level FlightAware Approximate
05:22AM 49.9986 -12.9640 105° East  Level FlightAware Approximate
05:23AM 49.9604 -12.7483 105° East  Level FlightAware Approximate
05:24AM 49.9218 -12.5330 105° East  Level FlightAware Approximate
05:25AM 49.8829 -12.3181 106° East  Level FlightAware Approximate
05:26AM 49.8435 -12.1035 106° East  Level FlightAware Approximate
05:27AM 49.8037 -11.8893 106° East  Level FlightAware Approximate
05:28AM 49.7636 -11.6754 106° East  Level FlightAware Approximate
05:29AM 49.7230 -11.4619 106° East  Level FlightAware Approximate
05:30AM 49.6821 -11.2487 106° East  Level FlightAware Approximate
05:31AM 49.6407 -11.0359 107° East  Level FlightAware Approximate
05:32AM 49.5990 -10.8234 107° East  Level FlightAware Approximate
05:33AM 49.5569 -10.6113 107° East  Level FlightAware Approximate
05:34AM 49.5144 -10.3996 107° East  Level FlightAware Approximate
05:35AM 49.4715 -10.1883 107° East  Level FlightAware Approximate
05:36AM 49.4282 -9.9773 107° East  Level FlightAware Approximate
05:37AM 49.3845 -9.7667 108° East  Level FlightAware Approximate
05:37AM 49.6760 -8.9701 108° East 496 571 37,000  Level FlightAware UK
05:38AM 49.6438 -8.8626 115° Southeast 494 568 37,000  Level FlightAware UK
05:38AM 49.6117 -8.7551 115° Southeast 494 568 37,000  Level FlightAware UK
05:39AM 49.5795 -8.6477 115° Southeast 498 573 37,000  Level FlightAware UK
05:39AM 49.5471 -8.5406 115° Southeast 498 573 37,000  Level FlightAware UK
05:40AM 49.5145 -8.4335 115° Southeast 496 571 37,000  Level FlightAware UK
05:40AM 49.4980 -8.3600 115° Southeast 549 632 37,000  Level FlightAware
05:40AM 49.4820 -8.3265 115° Southeast 496 571 37,000  Level FlightAware UK
05:41AM 49.4496 -8.2196 115° Southeast 496 571 37,000  Level FlightAware UK
05:41AM 49.4550 -8.2190 115° Southeast 549 632 37,000  Level FlightAware
05:42AM 49.3970 -8.0290 115° Southeast 548 631 37,000  Level FlightAware
05:42AM 49.3512 -7.9002 115° Southeast 494 568 37,000  Level FlightAware UK
05:42AM 49.3520 -7.8830 115° Southeast 548 631 37,000  Level FlightAware
05:43AM 49.3100 -7.7470 115° Southeast 547 629 37,000  Level FlightAware
05:44AM 49.2650 -7.6030 116° Southeast 549 632 37,000  Level FlightAware
05:44AM 49.2100 -7.4270 116° Southeast 554 638 37,000  Level FlightAware
05:45AM 49.1760 -7.3190 116° Southeast 555 639 37,000  Level FlightAware
05:46AM 49.1198 -7.1604 116° Southeast 492 566 37,000  Level FlightAware UK
05:46AM 49.1330 -7.1810 116° Southeast 556 640 37,000  Level FlightAware
05:46AM 49.0794 -7.0333 116° Southeast 494 568 37,000  Level FlightAware UK
05:46AM 49.0740 -6.9950 116° Southeast 557 641 37,000  Level FlightAware
05:47AM 49.0340 -6.8690 116° Southeast 557 641 37,000  Level FlightAware
05:48AM 48.9774 -6.7149 116° Southeast 494 568 37,000  Level FlightAware UK
05:48AM 48.9890 -6.7300 116° Southeast 558 642 37,000  Level FlightAware
05:48AM 48.9430 -6.6091 116° Southeast 494 568 37,000  Level FlightAware UK
05:49AM 48.9360 -6.5650 116° Southeast 560 644 37,000  Level FlightAware
05:49AM 48.8900 -6.4240 116° Southeast 561 646 37,000  Level FlightAware
05:49AM 48.8745 -6.3971 116° Southeast 496 571 37,000  Level FlightAware UK
05:50AM 48.8397 -6.2912 116° Southeast 494 568 37,000  Level FlightAware UK
05:50AM 48.8380 -6.2650 116° Southeast 562 647 37,000  Level FlightAware
05:51AM 48.7870 -6.1100 116° Southeast 564 649 37,000  Level FlightAware
05:51AM 48.7272 -5.9529 116° Southeast 498 573 37,000  Level FlightAware UK
05:52AM 48.7210 -5.9100 116° Southeast 564 649 37,000  Level FlightAware
05:52AM 48.6740 -5.7690 117° Southeast 564 649 37,000  Level FlightAware
05:53AM 48.6205 -5.6355 117° Southeast 500 575 37,000  Level FlightAware UK
05:53AM 48.6220 -5.6150 117° Southeast 565 650 37,000  Level FlightAware
05:54AM 48.5690 -5.4580 117° Southeast 565 650 37,000  Level FlightAware
05:54AM 48.5133 -5.3195 117° Southeast 500 575 37,000  Level FlightAware UK
05:54AM 48.5230 -5.3230 117° Southeast 566 651 37,000  Level FlightAware
05:55AM 48.4710 -5.1710 117° Southeast 565 650 37,000  Level FlightAware
05:56AM 48.4210 -5.0240 117° Southeast 565 650 37,000  Level FlightAware
05:57AM 48.3710 -4.8750 117° Southeast 566 651 37,000  Level FlightAware
05:57AM 48.3184 -4.7545 117° Southeast 500 575 37,000  Level FlightAware UK
05:57AM 48.3230 -4.7360 117° Southeast 566 651 37,000  Level FlightAware
05:58AM 48.2720 -4.5880 117° Southeast 565 650 37,000  Level FlightAware
05:59AM 48.2180 -4.4350 118° Southeast 565 650 37,000  Level FlightAware
05:59AM 48.1700 -4.2970 118° Southeast 565 650 37,000  Level FlightAware
06:00AM 48.1160 -4.1450 118° Southeast 565 650 37,000  Level FlightAware
06:01AM 48.0640 -3.9990 118° Southeast 565 650 37,000  Level FlightAware
06:01AM 48.0150 -3.8640 118° Southeast 565 650 37,000  Level FlightAware
06:02AM 47.9620 -3.7130 118° Southeast 567 652 37,000  Level FlightAware
06:03AM 47.9110 -3.5750 119° Southeast 568 654 37,000  Level FlightAware
06:04AM 47.8560 -3.4220 118° Southeast 569 655 37,000  Level FlightAware
06:04AM 47.8030 -3.2810 119° Southeast 569 655 37,000  Level FlightAware
06:05AM 47.7440 -3.1410 122° Southeast 569 655 37,000  Level FlightAware
06:06AM 47.6860 -3.0100 123° Southeast 568 654 37,000  Level FlightAware
06:06AM 47.6210 -2.8660 124° Southeast 568 654 37,000  Level FlightAware
06:07AM 47.5640 -2.7400 124° Southeast 569 655 37,000  Level FlightAware
06:08AM 47.4990 -2.6000 124° Southeast 569 655 37,000  Level FlightAware
06:08AM 47.4350 -2.4620 124° Southeast 570 656 37,000  Level FlightAware
06:09AM 47.3760 -2.3370 125° Southeast 570 656 37,000  Level FlightAware
06:10AM 47.3120 -2.2000 125° Southeast 570 656 37,000  Level FlightAware
06:10AM 47.2500 -2.0700 125° Southeast 570 656 37,000  Level FlightAware
06:11AM 47.1840 -1.9310 125° Southeast 570 656 37,000  Level FlightAware
06:12AM 47.1200 -1.7970 125° Southeast 569 655 37,000  Level FlightAware
06:13AM 47.0590 -1.6710 125° Southeast 569 655 37,000  Level FlightAware
06:14AM 46.9700 -1.4890 126° Southeast 569 655 37,000  Level FlightAware
06:14AM 46.9100 -1.3660 125° Southeast 569 655 37,000  Level FlightAware
06:15AM 46.8360 -1.2160 126° Southeast 569 655 37,000  Level FlightAware
06:16AM 46.7690 -1.0780 125° Southeast 570 656 37,000  Level FlightAware
06:16AM 46.7130 -0.9260 118° Southeast 570 656 37,000  Level FlightAware
06:17AM 46.6650 -0.7570 112° Southeast 569 655 37,000  Level FlightAware
06:18AM 46.5950 -0.5080 112° Southeast 567 652 37,000  Level FlightAware
06:19AM 46.5560 -0.3750 113° Southeast 567 652 37,000  Level FlightAware
06:20AM 46.5070 -0.2090 113° Southeast 568 654 37,000  Level FlightAware
06:21AM 46.4640 -0.0630 113° Southeast 568 654 37,000  Level FlightAware
06:21AM 46.4180 0.0910 113° Southeast 568 654 37,000  Level FlightAware
06:22AM 46.3710 0.2480 113° Southeast 567 652 37,000  Level FlightAware
06:23AM 46.3350 0.3680 113° Southeast 568 654 37,000  Level FlightAware
06:23AM 46.2870 0.5270 114° Southeast 567 652 37,000  Level FlightAware
06:24AM 46.2410 0.6820 113° Southeast 567 652 37,000  Level FlightAware
06:25AM 46.2000 0.8200 113° Southeast 567 652 37,000  Level FlightAware
06:26AM 46.1530 0.9800 113° Southeast 567 652 37,000  Level FlightAware
06:26AM 46.1120 1.1210 113° Southeast 566 651 37,000  Level FlightAware
06:27AM 46.0700 1.2600 113° Southeast 567 652 37,000  Level FlightAware
06:28AM 46.0270 1.3940 115° Southeast 568 654 37,000  Level FlightAware
06:28AM 45.9950 1.4910 115° Southeast 568 654 37,000  Level FlightAware
06:29AM 45.9540 1.6120 116° Southeast 568 654 37,000  Level FlightAware
06:29AM 45.9030 1.7640 116° Southeast 568 654 37,000  Level FlightAware
06:30AM 45.8530 1.9110 116° Southeast 567 652 37,000  Level FlightAware
06:31AM 45.8120 2.0280 117° Southeast 567 652 37,000  Level FlightAware
06:31AM 45.7630 2.1730 116° Southeast 568 654 37,000  Level FlightAware
06:32AM 45.7100 2.3250 116° Southeast 568 654 37,000  Level FlightAware
06:33AM 45.6640 2.4560 117° Southeast 569 655 37,000  Level FlightAware
06:34AM 45.6100 2.6090 117° Southeast 568 654 37,000  Level FlightAware
06:35AM 45.5450 2.7950 116° Southeast 568 654 37,000  Level FlightAware
06:35AM 45.4830 2.9680 117° Southeast 569 655 37,000  Level FlightAware
06:36AM 45.4270 3.1260 117° Southeast 569 655 37,000  Level FlightAware
06:37AM 45.3740 3.2720 117° Southeast 569 655 37,000  Level FlightAware
06:38AM 45.3230 3.4110 118° Southeast 569 655 37,000  Level FlightAware
06:38AM 45.2710 3.5500 118° Southeast 568 654 37,000  Level FlightAware
06:39AM 45.2210 3.6840 118° Southeast 568 654 37,000  Level FlightAware
06:40AM 45.1710 3.8180 118° Southeast 567 652 37,000  Level FlightAware
06:40AM 45.1150 3.9610 119° Southeast 566 651 37,000  Level FlightAware
06:41AM 45.0610 4.0880 121° Southeast 564 649 37,000  Level FlightAware
06:42AM 45.0050 4.2210 121° Southeast 563 648 37,000  Level FlightAware
06:42AM 44.9440 4.3650 121° Southeast 562 647 37,000  Level FlightAware
06:43AM 44.8900 4.4910 121° Southeast 562 647 37,000  Level FlightAware
06:44AM 44.8340 4.6250 120° Southeast 561 646 37,000  Level FlightAware
06:45AM 44.7780 4.7540 121° Southeast 560 644 37,000  Level FlightAware
06:45AM 44.7280 4.8720 121° Southeast 560 644 37,000  Level FlightAware
06:46AM 44.6680 5.0120 121° Southeast 561 646 37,000  Level FlightAware
06:47AM 44.6130 5.1420 121° Southeast 560 644 37,000  Level FlightAware
06:47AM 44.5560 5.2680 122° Southeast 559 643 37,000  Level FlightAware
06:48AM 44.4910 5.4060 123° Southeast 558 642 37,000  Level FlightAware
06:49AM 44.4370 5.5200 124° Southeast 556 640 37,000  Level FlightAware
06:49AM 44.3740 5.6510 124° Southeast 556 640 37,000  Level FlightAware
06:50AM 44.3100 5.7880 123° Southeast 558 642 37,000  Level FlightAware
06:51AM 44.2580 5.9080 121° Southeast 557 641 37,000  Level FlightAware
06:52AM 44.2040 6.0310 121° Southeast 558 642 37,000  Level FlightAware
06:52AM 44.1480 6.1610 121° Southeast 558 642 37,000  Level FlightAware
06:53AM 44.0850 6.3040 121° Southeast 558 642 37,000  Level FlightAware
06:54AM 44.0420 6.4220 117° Southeast 555 639 37,000  Level FlightAware
06:54AM 44.0060 6.5530 111° Southeast 555 639 37,000  Level FlightAware
06:55AM 43.9670 6.6930 111° Southeast 554 638 37,000  Level FlightAware
06:56AM 43.9270 6.8370 111° Southeast 553 636 37,000  Level FlightAware
06:56AM 43.8860 6.9870 111° Southeast 553 636 37,000  Level FlightAware
06:57AM 43.8410 7.1140 116° Southeast 553 636 37,000  Level FlightAware
06:58AM 43.7770 7.2520 123° Southeast 553 636 37,000  Level FlightAware
06:59AM 43.7210 7.3620 125° Southeast 552 635 37,000  Level FlightAware
06:59AM 43.6400 7.5180 126° Southeast 553 636 37,000  Level FlightAware
07:00AM 43.5830 7.6260 126° Southeast 553 636 37,000  Level FlightAware
07:01AM 43.5100 7.7650 126° Southeast 554 638 37,000  Level FlightAware
07:02AM 43.4560 7.8680 126° Southeast 554 638 37,000  Level FlightAware
07:02AM 43.3680 8.0340 126° Southeast 555 639 37,000  Level FlightAware
07:03AM 43.3000 8.1650 125° Southeast 554 638 37,000  Level FlightAware
07:04AM 43.2400 8.2780 126° Southeast 555 639 37,000  Level FlightAware
07:05AM 43.1300 8.4850 126° Southeast 554 638 37,000  Level FlightAware
07:06AM 43.0690 8.5990 126° Southeast 554 638 37,000  Level FlightAware
07:06AM 43.0040 8.7220 126° Southeast 553 636 37,000  Level FlightAware
07:07AM 42.9370 8.8450 127° Southeast 552 635 37,000  Level FlightAware
07:08AM 42.8820 8.9460 127° Southeast 552 635 37,000  Level FlightAware
07:09AM 42.8100 9.0780 127° Southeast 551 634 37,000  Level FlightAware
07:09AM 42.7440 9.1970 127° Southeast 549 632 37,000  Level FlightAware
07:10AM 42.6810 9.3140 126° Southeast 548 631 37,000  Level FlightAware
07:11AM 42.6330 9.4010 127° Southeast 546 628 37,000  Level FlightAware
07:12AM 42.5640 9.5710 119° Southeast 549 632 37,000  Level FlightAware
07:12AM 42.5290 9.7040 110° East 550 633 37,000  Level FlightAware
07:13AM 42.4910 9.8550 109° East 551 634 37,000  Level FlightAware
07:14AM 42.4570 9.9860 109° East 552 635 37,000  Level FlightAware
07:14AM 42.4230 10.1130 110° East 554 638 37,000  Level FlightAware
07:15AM 42.3840 10.2580 110° East 555 639 37,000  Level FlightAware
07:16AM 42.3490 10.3880 110° East 554 638 37,000  Level FlightAware
07:16AM 42.3120 10.5230 110° East 555 639 37,000  Level FlightAware
07:17AM 42.2740 10.6630 110° East 555 639 37,000  Level FlightAware
07:18AM 42.2350 10.8020 111° Southeast 556 640 37,000  Level FlightAware
07:19AM 42.1950 10.9470 110° East 556 640 37,000  Level FlightAware
07:19AM 42.1500 11.0710 116° Southeast 554 638 37,000  Level FlightAware
07:20AM 42.0880 11.1840 126° Southeast 548 631 37,000  Level FlightAware
07:21AM 42.0200 11.2940 130° Southeast 545 627 37,000  Level FlightAware
07:21AM 41.9540 11.3970 131° Southeast 542 624 37,000  Level FlightAware
07:22AM 41.8810 11.5130 130° Southeast 536 617 37,000  Level FlightAware
07:23AM 41.8170 11.6150 130° Southeast 536 617 37,000  Level FlightAware
07:23AM 41.7520 11.7170 130° Southeast 542 624 37,000  Level FlightAware
07:24AM 41.6790 11.8310 131° Southeast 541 623 37,000  Level FlightAware
07:25AM 41.6130 11.9330 131° Southeast 539 620 37,000  Level FlightAware
07:25AM 41.5490 12.0330 131° Southeast 532 612 37,000  Level FlightAware
07:26AM 41.4750 12.1460 131° Southeast 528 608 37,000  Level FlightAware
07:27AM 41.4110 12.2460 130° Southeast 526 605 37,000  Level FlightAware
07:28AM 41.3470 12.3470 130° Southeast 525 604 37,000  Level FlightAware
07:29AM 41.2490 12.4950 131° Southeast 521 600 37,000  Level FlightAware
07:29AM 41.1810 12.5990 131° Southeast 522 601 37,000  Level FlightAware
07:30AM 41.1180 12.6940 131° Southeast 520 598 37,000  Level FlightAware
07:31AM 41.0440 12.8060 131° Southeast 523 602 37,000  Level FlightAware
07:31AM 40.9850 12.8950 131° Southeast 523 602 37,000  Level FlightAware
07:32AM 40.9170 13.0110 128° Southeast 530 610 37,000  Level FlightAware
07:33AM 40.8660 13.1250 121° Southeast 532 612 37,000  Level FlightAware
07:33AM 40.8120 13.2530 119° Southeast 532 612 37,000  Level FlightAware
07:34AM 40.7660 13.3580 120° Southeast 530 610 37,000  Level FlightAware
07:35AM 40.7110 13.4840 120° Southeast 530 610 37,000  Level FlightAware
07:36AM 40.6620 13.5960 120° Southeast 530 610 37,000  Level FlightAware
07:36AM 40.6120 13.7090 120° Southeast 530 610 37,000  Level FlightAware
07:37AM 40.5640 13.8190 120° Southeast 529 609 37,000  Level FlightAware
07:38AM 40.5040 13.9530 120° Southeast 532 612 37,000  Level FlightAware
07:38AM 40.4580 14.0560 120° Southeast 534 615 37,000  Level FlightAware
07:39AM 40.3810 14.2280 120° Southeast 536 617 37,000  Level FlightAware
07:40AM 40.3360 14.3280 121° Southeast 534 615 37,000  Level FlightAware
07:41AM 40.2780 14.4560 121° Southeast 531 611 37,000  Level FlightAware
07:41AM 40.2250 14.5720 121° Southeast 530 610 37,000  Level FlightAware
07:42AM 40.1700 14.6920 121° Southeast 528 608 37,000  Level FlightAware
07:43AM 40.1160 14.8080 121° Southeast 527 606 37,000  Level FlightAware
07:44AM 40.0640 14.9220 121° Southeast 524 603 37,000  Level FlightAware
07:44AM 40.0150 15.0290 121° Southeast 523 602 37,000  Level FlightAware
07:45AM 39.9290 15.2150 121° Southeast 524 603 37,000  Level FlightAware
07:46AM 39.8730 15.3320 122° Southeast 523 602 37,000  Level FlightAware
07:47AM 39.8180 15.4500 121° Southeast 523 602 37,000  Level FlightAware
07:47AM 39.7710 15.5470 122° Southeast 524 603 37,000  Level FlightAware
07:48AM 39.7150 15.6700 121° Southeast 528 608 37,000  Level FlightAware
07:49AM 39.6700 15.7920 116° Southeast 529 609 37,000  Level FlightAware
07:50AM 39.6300 15.9100 114° Southeast 530 610 37,000  Level FlightAware
07:50AM 39.5900 16.0290 114° Southeast 527 606 37,000  Level FlightAware
07:51AM 39.5480 16.1550 113° Southeast 526 605 37,000  Level FlightAware
07:52AM 39.5060 16.2790 114° Southeast 525 604 37,000  Level FlightAware
07:52AM 39.4640 16.4040 113° Southeast 525 604 37,000  Level FlightAware
07:53AM 39.4230 16.5240 114° Southeast 526 605 37,000  Level FlightAware
07:54AM 39.3840 16.6420 113° Southeast 526 605 37,000  Level FlightAware
07:54AM 39.3450 16.7560 114° Southeast 524 603 37,000  Level FlightAware
07:55AM 39.3000 16.8870 114° Southeast 518 596 37,000  Level FlightAware
07:56AM 39.2620 16.9980 114° Southeast 520 598 37,000  Level FlightAware
07:57AM 39.2280 17.0960 114° Southeast 503 579 37,000  Level FlightAware
07:57AM 39.1830 17.2250 114° Southeast 522 601 37,000  Level FlightAware
07:58AM 39.1360 17.3610 114° Southeast 521 600 37,000  Level FlightAware
07:59AM 39.0910 17.4880 115° Southeast 519 597 37,000  Level FlightAware
08:00AM 39.0510 17.6040 114° Southeast 519 597 37,000  Level FlightAware
08:00AM 39.0120 17.7140 114° Southeast 518 596 37,000  Level FlightAware
08:01AM 38.9740 17.8230 114° Southeast 517 595 37,000  Level FlightAware
08:02AM 38.9150 17.9920 114° Southeast 514 592 37,000  Level FlightAware
08:02AM 38.8760 18.1030 114° Southeast 512 589 37,000  Level FlightAware
08:03AM 38.8330 18.2220 115° Southeast 510 587 37,000  Level FlightAware
08:04AM 38.7940 18.3310 115° Southeast 510 587 37,000  Level FlightAware
08:04AM 38.7540 18.4410 115° Southeast 511 588 37,000  Level FlightAware
08:05AM 38.7160 18.5450 115° Southeast 511 588 37,000  Level FlightAware
08:06AM 38.6820 18.6380 115° Southeast 512 589 37,000  Level FlightAware
08:07AM 38.6350 18.7670 115° Southeast 512 589 37,000  Level FlightAware
08:07AM 38.5950 18.8770 115° Southeast 512 589 37,000  Level FlightAware
08:08AM 38.5500 19.0040 114° Southeast 510 587 37,000  Level FlightAware
08:09AM 38.5130 19.1320 110° East 518 596 37,000  Level FlightAware
08:09AM 38.4820 19.2510 108° East 519 597 37,000  Level FlightAware
08:10AM 38.4500 19.3710 109° East 518 596 37,000  Level FlightAware
08:11AM 38.3990 19.5600 109° East 514 592 37,000  Level FlightAware
08:12AM 38.3710 19.6640 109° East 517 595 37,000  Level FlightAware
08:13AM 38.3310 19.8110 109° East 514 592 37,000  Level FlightAware
08:13AM 38.3020 19.9250 108° East 515 593 37,000  Level FlightAware
08:14AM 38.2800 20.0080 109° East 515 593 37,000  Level FlightAware
08:15AM 38.2360 20.1600 110° East 515 593 37,000  Level FlightAware
08:16AM 38.1880 20.3340 109° East 513 590 37,000  Level FlightAware
08:16AM 38.1570 20.4460 109° East 512 589 37,000  Level FlightAware
08:17AM 38.1160 20.5730 112° Southeast 505 581 37,000  Level FlightAware
08:18AM 38.0790 20.6730 115° Southeast 502 578 37,000  Level FlightAware
08:18AM 38.0320 20.7980 115° Southeast 501 577 37,000  Level FlightAware
08:19AM 37.9950 20.8950 116° Southeast 502 578 37,000  Level FlightAware
08:20AM 37.9330 21.0550 116° Southeast 504 580 37,000  Level FlightAware
08:21AM 37.8920 21.1610 116° Southeast 504 580 37,000  Level FlightAware
08:21AM 37.8500 21.2710 116° Southeast 503 579 37,000  Level FlightAware
08:22AM 37.8060 21.3850 116° Southeast 503 579 37,000  Level FlightAware
08:23AM 37.7530 21.5210 116° Southeast 502 578 37,000  Level FlightAware
08:24AM 37.7120 21.6260 116° Southeast 503 579 37,000  Level FlightAware
08:25AM 37.6710 21.7330 116° Southeast 503 579 37,000  Level FlightAware
08:25AM 37.6270 21.8450 116° Southeast 502 578 37,000  Level FlightAware
08:26AM 37.5870 21.9480 116° Southeast 502 578 37,000  Level FlightAware
08:27AM 37.5540 22.0340 116° Southeast 502 578 37,000  Level FlightAware
08:27AM 37.5120 22.1410 116° Southeast 502 578 37,000  Level FlightAware
08:28AM 37.4420 22.3120 117° Southeast 504 580 37,000  Level FlightAware
08:29AM 37.4090 22.4030 115° Southeast 505 581 37,000  Level FlightAware
08:29AM 37.3720 22.5080 114° Southeast 505 581 37,000  Level FlightAware
08:30AM 37.3430 22.5910 114° Southeast 505 581 37,000  Level FlightAware
08:31AM 37.2900 22.8220 106° East 516 594 37,000  Level FlightAware
08:32AM 37.2530 22.9460 111° Southeast 517 595 37,000  Level FlightAware
08:32AM 37.2200 23.0590 110° East 518 596 37,000  Level FlightAware
08:33AM 37.1830 23.1810 111° Southeast 517 595 37,000  Level FlightAware
08:34AM 37.1480 23.2950 111° Southeast 517 595 37,000  Level FlightAware
08:35AM 37.1120 23.4140 111° Southeast 516 594 37,000  Level FlightAware
08:35AM 37.0780 23.5260 111° Southeast 517 595 37,000  Level FlightAware
08:36AM 37.0430 23.6370 112° Southeast 518 596 37,000  Level FlightAware
08:37AM 37.0060 23.7570 111° Southeast 519 597 37,000  Level FlightAware
08:37AM 36.9690 23.8790 111° Southeast 519 597 37,000  Level FlightAware
08:38AM 36.9310 24.0030 111° Southeast 519 597 37,000  Level FlightAware
08:39AM 36.8970 24.1140 111° Southeast 520 598 37,000  Level FlightAware
08:39AM 36.8610 24.2320 111° Southeast 521 600 37,000  Level FlightAware
08:40AM 36.8270 24.3450 111° Southeast 520 598 37,000  Level FlightAware
08:41AM 36.7870 24.4760 111° Southeast 520 598 37,000  Level FlightAware
08:42AM 36.7530 24.5850 111° Southeast 516 594 37,000  Level FlightAware
08:42AM 36.7090 24.7040 115° Southeast 514 592 37,000  Level FlightAware
08:43AM 36.6670 24.8150 115° Southeast 515 593 37,000  Level FlightAware
08:44AM 36.6270 24.9250 114° Southeast 515 593 37,000  Level FlightAware
08:44AM 36.5840 25.0430 114° Southeast 516 594 37,000  Level FlightAware
08:45AM 36.5440 25.1510 115° Southeast 517 595 37,000  Level FlightAware
08:46AM 36.5090 25.2480 114° Southeast 518 596 37,000  Level FlightAware
08:46AM 36.4580 25.3830 115° Southeast 520 598 37,000  Level FlightAware
08:47AM 36.4190 25.4890 115° Southeast 521 600 37,000  Level FlightAware
08:48AM 36.3740 25.6110 115° Southeast 522 601 37,000  Level FlightAware
08:49AM 36.3320 25.7210 115° Southeast 522 601 37,000  Level FlightAware
08:49AM 36.2930 25.8250 115° Southeast 522 601 37,000  Level FlightAware
08:50AM 36.2440 25.9540 115° Southeast 522 601 37,000  Level FlightAware
08:51AM 36.2030 26.0630 115° Southeast 521 600 37,000  Level FlightAware
08:51AM 36.1580 26.1800 115° Southeast 521 600 37,000  Level FlightAware
08:52AM 36.1140 26.2950 115° Southeast 520 598 37,000  Level FlightAware
08:53AM 36.0770 26.3900 116° Southeast 519 597 37,000  Level FlightAware
08:53AM 36.0280 26.5200 115° Southeast 519 597 37,000  Level FlightAware
08:54AM 35.9880 26.6220 116° Southeast 519 597 37,000  Level FlightAware
08:55AM 35.9410 26.7440 115° Southeast 520 598 37,000  Level FlightAware
08:56AM 35.8910 26.8740 115° Southeast 521 600 37,000  Level FlightAware
08:57AM 35.8510 26.9790 115° Southeast 521 600 37,000  Level FlightAware
08:57AM 35.8190 27.0640 115° Southeast 521 600 37,000  Level FlightAware
08:58AM 35.7870 27.1490 115° Southeast 521 600 37,000  Level FlightAware
08:59AM 35.7450 27.2580 115° Southeast 521 600 37,000  Level FlightAware
08:59AM 35.7060 27.3610 115° Southeast 521 600 37,000  Level FlightAware
09:00AM 35.6200 27.5590 118° Southeast 524 603 37,000  Level FlightAware
09:01AM 35.5710 27.6860 115° Southeast 525 604 37,000  Level FlightAware
09:02AM 35.5400 27.7660 115° Southeast 525 604 37,000  Level FlightAware
09:02AM 35.4960 27.8810 115° Southeast 525 604 37,000  Level FlightAware
09:03AM 35.4190 28.0570 118° Southeast 529 609 37,000  Level FlightAware
09:04AM 35.3760 28.1620 117° Southeast 530 610 37,000  Level FlightAware
09:04AM 35.3270 28.2840 116° Southeast 530 610 37,000  Level FlightAware
09:05AM 35.2800 28.3980 117° Southeast 530 610 37,000  Level FlightAware
09:06AM 35.2340 28.5100 117° Southeast 529 609 37,000  Level FlightAware
09:07AM 35.1860 28.6280 116° Southeast 530 610 37,000  Level FlightAware
09:07AM 35.1370 28.7450 117° Southeast 530 610 37,000  Level FlightAware
09:08AM 35.1000 28.8370 116° Southeast 530 610 37,000  Level FlightAware
09:09AM 35.0350 28.9930 117° Southeast 530 610 37,000  Level FlightAware
09:09AM 34.9900 29.1020 117° Southeast 531 611 37,000  Level FlightAware
09:10AM 34.9330 29.2420 116° Southeast 531 611 37,000  Level FlightAware
09:11AM 34.8710 29.3870 117° Southeast 532 612 37,000  Level FlightAware
09:12AM 34.8450 29.4480 117° Southeast 532 612 37,000  Level FlightAware
09:13AM 34.7630 29.6420 117° Southeast 534 615 37,000  Level FlightAware
09:14AM 34.7150 29.7530 118° Southeast 530 610 37,000  Level FlightAware
09:14AM 34.6640 29.8700 118° Southeast 531 611 37,000  Level FlightAware
09:17AM 34.5000 30.2002 121° Southeast  Level Estimated
09:17AM 34.4800 30.2670 121° Southeast 532 612 37,000  Level FlightAware
09:18AM 34.4240 30.3820 121° Southeast 528 608 37,000  Level FlightAware
09:18AM 34.3680 30.4970 121° Southeast 528 608 37,000  Level FlightAware
09:19AM 34.3180 30.5990 121° Southeast 528 608 37,000  Level FlightAware
09:20AM 34.2620 30.7160 120° Southeast 527 606 37,000  Level FlightAware
09:21AM 34.1990 30.8440 121° Southeast 526 605 37,000  Level FlightAware
09:21AM 34.1550 30.9350 120° Southeast 524 603 37,000  Level FlightAware
09:22AM 34.0930 31.0610 121° Southeast 524 603 37,000  Level FlightAware
09:23AM 34.0190 31.2120 121° Southeast 522 601 37,000  Level FlightAware
09:24AM 33.9730 31.3060 121° Southeast 521 600 37,000  Level FlightAware
09:24AM 33.9180 31.4180 121° Southeast 520 598 37,000  Level FlightAware
09:25AM 33.8690 31.5160 121° Southeast 519 597 37,000  Level FlightAware
09:26AM 33.7910 31.6740 121° Southeast 519 597 37,000  Level FlightAware
09:27AM 33.7470 31.7610 121° Southeast 518 596 37,000  Level FlightAware
09:27AM 33.6920 31.8730 121° Southeast 517 595 37,000  Level FlightAware
09:28AM 33.6410 31.9750 121° Southeast 517 595 37,000  Level FlightAware
09:29AM 33.5930 32.0700 121° Southeast 515 593 37,000  Level FlightAware
09:29AM 33.5430 32.1710 121° Southeast 515 593 37,000  Level FlightAware
09:31AM 33.4420 32.3750 121° Southeast 516 594 37,000  Level FlightAware
09:32AM 33.3660 32.5250 121° Southeast 516 594 37,000  Level FlightAware
09:34AM 33.2450 32.7650 121° Southeast 510 587 37,000 -300 Level FlightAware
09:34AM 33.1890 32.8740 122° Southeast 505 581 36,400 -1,560 Descending FlightAware
09:35AM 33.1460 32.9580 121° Southeast 504 580 34,900 -2,880 Descending FlightAware
09:37AM 33.0010 33.2450 121° Southeast 509 586 29,000 -2,700 Descending FlightAware
09:38AM 32.9720 33.3690 106° East 510 587 27,600 -1,500 Descending FlightAware
09:38AM 32.9550 33.4830 100° East 454 522 26,800 -1,020 Descending FlightAware
09:39AM 32.9400 33.5770 101° East 422 486 26,200 -1,020 Descending FlightAware
09:40AM 32.9260 33.6630 101° East 402 463 25,500 -1,260 Descending FlightAware
09:40AM 32.9130 33.7400 101° East 392 451 24,500 -1,800 Descending FlightAware
09:41AM 32.8900 33.8390 105° East 382 440 23,000 -2,100 Descending FlightAware
09:41AM 32.8690 33.8700 129° Southeast 374 430 22,400 -1,920 Descending FlightAware
09:42AM 32.8080 33.9060 154° Southeast 362 417 21,200 -1,680 Descending FlightAware
09:43AM 32.7420 33.9340 160° South 357 411 20,100 -1,620 Descending FlightAware
09:43AM 32.6770 33.9600 161° South 347 399 19,000 -1,560 Descending FlightAware
09:44AM 32.6100 33.9860 162° South 342 394 17,900 -1,500 Descending FlightAware
09:44AM 32.5800 33.9980 161° South 337 388 17,400 -1,800 Descending FlightAware
09:45AM 32.5370 34.0140 163° South 340 391 16,400 -3,000 Descending FlightAware
09:46AM 32.4050 34.0620 163° South 398 458 11,500 -2,820 Descending FlightAware
09:47AM 32.3300 34.0950 160° South 361 415 10,600 -720 Descending FlightAware
09:48AM 32.2840 34.1300 147° Southeast 361 415 10,600  Level FlightAware
09:49AM 32.2260 34.1750 147° Southeast 361 415 10,600 -1,500 Level FlightAware
09:49AM 32.2760 34.3130 67° East 283 326 8,100 -2,760 Descending FlightAware
09:50AM 32.2750 34.3230 97° East 283 326 7,900 -960 Descending FlightAware
09:50AM 32.2720 34.3520 97° East 282 325 7,500 -420 Descending FlightAware
09:50AM 32.2690 34.3860 96° East 282 325 7,500  Level FlightAware
09:53AM 32.1006 34.6713 125° Southeast  Level FlightAware Approximate
09:54AM 32.0290 34.8184 125° Southeast  Level FlightAware Approximate
09:55AM 32.0000 34.8667 125° Southeast  Level FlightAware Approximate
09:56AM 32.0095 34.8769 125° Southeast  Level Estimated
09:57AM 32.0095 34.8769 125° Southeast  Level Estimated
09:58AM 32.0095 34.8769 125° Southeast  Level Estimated
09:59AM 32.0095 34.8769 125° Southeast  Level Estimated
10:00AM 32.0095 34.8769 125° Southeast  Level Estimated
10:01AM 32.0095 34.8769 125° Southeast  Level Estimated
10:02AM 32.0095 34.8769 125° Southeast  Level Estimated
10:03AM 32.0095 34.8769 125° Southeast  Level Estimated